GW0996 Weather Reports


time (UTC)temp
F
wind
direction
speed
knots
gust
knots
rain 1hr
in
rain 24hr
in
rain mn
in
humidity
%
barometer
mb
20260903105823 93 228 0.9 0.9 0.00 0.00 0.00 35 1016.8
20260903105326 94 166 0.0 0.9 0.00 0.00 0.00 36 1017.1
20260903104822 94 220 0.9 0.9 0.00 0.00 0.00 37 1017.1
20260903104322 93 132 0.0 1.7 0.00 0.00 0.00 38 1017.1
20260903103823 92 132 0.0 1.7 0.00 0.00 0.00 39 1017.2
20260903103329 92 147 0.0 0.9 0.00 0.00 0.00 40 1017.4
20260903102822 91 152 0.0 1.7 0.00 0.00 0.00 44 1017.5
20260903102322 90 152 0.0 1.7 0.00 0.00 0.00 45 1017.3
20260903101822 92 142 0.9 0.9 0.00 0.00 0.00 42 1017.5
20260903101322 91 131 0.0 0.9 0.00 0.00 0.00 42 1017.5
20260903100822 88 131 0.0 0.9 0.00 0.00 0.00 45 1017.7
20260903100319 88 133 0.9 1.7 0.00 0.00 0.00 49 1017.7
20260903095820 88 93 0.9 0.9 0.00 0.00 0.00 46 1017.8
20260903095319 88 24 0.0 0.9 0.00 0.00 0.00 47 1017.6
20260903094821 87 340 0.0 1.7 0.00 0.00 0.00 49 1017.7
20260903094319 86 296 0.9 3.5 0.00 0.00 0.00 50 1017.6
20260903093819 86 315 0.9 3.5 0.00 0.00 0.00 51 1017.8
20260903093322 86 305 0.0 2.6 0.00 0.00 0.00 50 1017.8
20260903092825 86 148 0.0 5.2 0.00 0.00 0.00 50 1017.6
20260903091823 85 310 0.0 2.6 0.00 0.00 0.00 49 1017.7
20260903091324 84 316 0.9 2.6 0.00 0.00 0.00 53 1018.0
20260903090826 85 34 0.0 0.9 0.00 0.00 0.00 50 1018.1
20260903090324 85 297 0.0 2.6 0.00 0.00 0.00 49 1018.0
20260903085823 83 303 0.0 2.6 0.00 0.00 0.00 52 1017.9
20260903085323 83 288 0.0 0.9 0.00 0.00 0.00 56 1018.1
20260903084829 83 358 0.0 0.0 0.00 0.00 0.00 58 1018.0
20260903083823 82 14 0.0 1.7 0.00 0.00 0.00 57 1018.1
20260903083322 82 310 0.0 0.0 0.00 0.00 0.00 58 1018.0
20260903082824 81 309 0.0 1.7 0.00 0.00 0.00 61 1017.8
20260903082323 81 309 0.0 1.7 0.00 0.00 0.00 61 1018.0
20260903080824 80 38 0.0 0.0 0.00 0.00 0.00 59 1017.9
20260903080320 80 38 0.0 0.0 0.00 0.00 0.00 60 1017.9
20260903075322 79 33 0.0 0.0 0.00 0.00 0.00 61 1018.2
20260903074820 78 32 0.0 0.0 0.00 0.00 0.00 64 1018.0
20260903074324 77 25 0.0 0.0 0.00 0.00 0.00 62 1018.0
20260903073819 77 4 0.0 0.0 0.00 0.00 0.00 63 1017.9
20260903073320 77 4 0.0 0.0 0.00 0.00 0.00 63 1018.1
20260903072823 75 352 0.0 0.0 0.00 0.00 0.00 65 1018.1
20260903072326 74 352 0.0 0.0 0.00 0.00 0.00 69 1018.1
20260903071823 73 352 0.0 0.0 0.00 0.00 0.00 70 1018.0
20260903071323 72 352 0.0 0.0 0.00 0.00 0.00 72 1018.1
20260903070820 73 352 0.0 0.0 0.00 0.00 0.00 70 1017.9
20260903070326 73 352 0.0 0.0 0.00 0.00 0.00 71 1018.0
20260903065819 71 352 0.0 0.0 0.00 0.00 0.00 71 1018.0
20260903064823 70 352 0.0 0.0 0.00 0.00 0.00 73 1018.2
20260903064323 70 352 0.0 0.0 0.00 0.00 0.00 74 1018.2
20260903063819 69 352 0.0 0.0 0.00 0.00 0.00 74 1018.1
20260903062808 68 351 0.0 0.0 0.00 0.00 0.00 78 1018.4
20260903062308 68 351 0.0 0.0 0.00 0.00 0.00 78 1018.2
20260903061807 68 351 0.0 0.0 0.00 0.00 0.00 77 1018.1
20260903060756 66 352 0.0 0.0 0.00 0.00 0.00 81 1018.1
20260903060257 65 351 0.0 0.0 0.00 0.00 0.00 84 1018.2
20260903055256 63 350 0.0 0.0 0.00 0.00 0.00 85 1018.1
20260903054755 63 350 0.0 0.0 0.00 0.00 0.00 87 1018.1
20260903054255 62 346 0.0 0.0 0.00 0.00 0.00 90 1018.0
20260903053750 61 346 0.0 0.0 0.00 0.00 0.00 90 1017.9
20260903053244 60 346 0.0 0.0 0.00 0.00 0.00 90 1017.8
20260903052744 60 346 0.0 0.0 0.00 0.00 0.00 90 1017.8
20260903052241 60 346 0.0 0.0 0.00 0.00 0.00 90 1017.6
20260903051736 60 346 0.0 0.0 0.00 0.00 0.00 90 1017.9
20260903051238 60 346 0.0 0.0 0.00 0.00 0.00 90 1017.9
20260903050732 60 346 0.0 0.0 0.00 0.00 0.00 91 1017.7
20260903050235 60 346 0.0 0.0 0.00 0.00 0.00 90 1017.7
20260903045731 60 346 0.0 0.0 0.00 0.00 0.00 90 1017.5
20260903044732 60 345 0.0 0.0 0.00 0.00 0.00 90 1017.6
20260903043731 60 345 0.0 0.0 0.00 0.00 0.00 90 1017.4
20260903043232 60 345 0.0 0.9 0.00 0.00 0.00 89 1017.4
20260903042233 60 340 0.0 0.0 0.00 0.00 0.00 89 1017.3
20260903041736 60 339 0.0 0.0 0.00 0.00 0.00 89 1017.5
20260903040734 61 339 0.0 0.0 0.00 0.00 0.00 88 1017.4
20260903040234 61 338 0.0 0.0 0.00 0.00 0.00 88 1017.4
20260903035736 61 338 0.0 0.0 0.00 0.00 0.00 88 1017.5
20260903035232 61 340 0.0 0.0 0.00 0.00 0.00 87 1017.5
20260903034232 61 340 0.0 0.9 0.00 0.00 0.00 88 1017.5
20260903033738 61 341 0.0 0.9 0.00 0.00 0.00 89 1017.7
20260903033232 61 341 0.0 0.0 0.00 0.00 0.00 88 1017.4
20260903032731 61 341 0.0 0.0 0.00 0.00 0.00 87 1017.6
20260903031735 62 341 0.0 0.0 0.00 0.00 0.00 87 1017.6
20260903031237 62 341 0.0 0.0 0.00 0.00 0.00 87 1017.6
20260903030730 62 341 0.0 0.9 0.00 0.00 0.00 87 1017.6
20260903030222 62 341 0.0 0.9 0.00 0.00 0.00 87 1017.5
20260903025218 62 342 0.0 0.0 0.00 0.00 0.00 86 1017.6
20260903024715 62 342 0.0 0.0 0.00 0.00 0.00 86 1017.6
20260903024211 62 342 0.0 0.0 0.00 0.00 0.00 86 1017.7
20260903023158 62 342 0.0 0.0 0.00 0.00 0.00 86 1017.8
20260903022632 62 342 0.0 0.0 0.00 0.00 0.00 86 1017.6
20260903022134 63 342 0.0 0.0 0.00 0.00 0.00 86 1017.6
20260903021140 62 342 0.0 0.0 0.00 0.00 0.00 86 1017.7
20260903020634 63 342 0.0 0.0 0.00 0.00 0.00 85 1017.6
20260903020135 63 342 0.0 0.0 0.00 0.00 0.00 85 1017.7
20260903015638 63 342 0.0 0.0 0.00 0.00 0.00 85 1017.5
20260903015129 63 341 0.0 0.0 0.00 0.00 0.00 85 1017.6
20260903014622 63 341 0.0 0.0 0.00 0.00 0.00 85 1017.6
20260903014126 63 342 0.0 0.0 0.00 0.00 0.00 85 1017.4
20260903013620 63 342 0.0 0.0 0.00 0.00 0.00 84 1017.4
20260903013123 63 341 0.0 0.0 0.00 0.00 0.00 84 1017.5
20260903012125 63 341 0.0 0.0 0.00 0.00 0.00 85 1017.3
20260903011620 64 342 0.0 0.0 0.00 0.00 0.00 85 1017.4
20260903011122 64 342 0.0 0.0 0.00 0.00 0.00 84 1017.2
20260903010629 64 342 0.0 0.0 0.00 0.00 0.00 84 1017.3
20260903005620 64 342 0.0 0.0 0.00 0.00 0.00 84 1017.4
20260903005122 64 342 0.0 0.0 0.00 0.00 0.00 84 1017.3
20260903004104 64 342 0.0 0.0 0.00 0.00 0.00 83 1017.4
20260903003602 64 342 0.0 0.0 0.00 0.00 0.00 82 1017.3
20260903003039 65 342 0.0 0.0 0.00 0.00 0.00 82 1017.3
20260903002533 65 342 0.0 0.0 0.00 0.00 0.00 81 1017.2
20260903002035 65 342 0.0 0.0 0.00 0.00 0.00 81 1017.5
20260903001032 66 342 0.0 0.0 0.00 0.00 0.00 79 1017.5
20260903000539 66 342 0.0 0.0 0.00 0.00 0.00 78 1017.5
20260903000030 66 341 0.0 0.0 0.00 0.00 0.00 77 1017.5
20260902235524 67 341 0.0 0.0 0.00 0.00 0.00 77 1017.5
20260902235018 67 341 0.0 0.0 0.00 0.00 0.00 76 1017.5
20260902234519 67 341 0.0 0.9 0.00 0.00 0.00 76 1017.5
20260902234015 67 341 0.0 0.9 0.00 0.00 0.00 75 1017.6
20260902233507 67 343 0.0 0.0 0.00 0.00 0.00 77 1017.7
20260902233008 67 343 0.0 0.0 0.00 0.00 0.00 77 1017.6
20260902232503 66 349 0.0 0.0 0.00 0.00 0.00 77 1017.7
20260902232000 66 353 0.0 0.0 0.00 0.00 0.00 77 1017.6
20260902231455 66 349 0.0 0.0 0.00 0.00 0.00 77 1017.4
20260902231001 66 346 0.0 0.0 0.00 0.00 0.00 77 1017.6
20260902230447 66 344 0.0 0.0 0.00 0.00 0.00 76 1017.8
20260902225945 66 342 0.0 0.0 0.00 0.00 0.00 76 1017.8
20260902225445 67 342 0.0 0.0 0.00 0.00 0.00 76 1017.7
20260902224945 66 342 0.0 0.0 0.00 0.00 0.00 76 1017.5
20260902224444 66 340 0.0 0.0 0.00 0.00 0.00 77 1017.6
20260902223948 66 336 0.0 0.0 0.00 0.00 0.00 77 1017.6
20260902223430 66 336 0.0 0.0 0.00 0.00 0.00 77 1017.6
20260902222935 66 332 0.0 0.0 0.00 0.00 0.00 76 1017.6
20260902222413 67 332 0.0 0.0 0.00 0.00 0.00 76 1017.4
20260902221906 67 332 0.0 0.0 0.00 0.00 0.00 76 1017.4
20260902221410 67 333 0.0 0.0 0.00 0.00 0.00 76 1017.5
20260902220904 67 332 0.0 0.0 0.00 0.00 0.00 76 1017.3
20260902220354 67 331 0.0 0.0 0.00 0.00 0.00 76 1017.6
20260902215856 67 331 0.0 0.0 0.00 0.00 0.00 75 1017.5
20260902215352 67 329 0.0 0.0 0.00 0.00 0.00 75 1017.4
20260902214845 68 311 0.0 0.0 0.00 0.00 0.00 74 1017.2
20260902213821 68 311 0.0 0.9 0.00 0.00 0.00 73 1017.1
20260902213301 68 310 0.0 0.9 0.00 0.00 0.00 73 1017.2
20260902212756 69 310 0.0 0.9 0.00 0.00 0.00 72 1017.1
20260902212238 69 310 0.0 0.9 0.00 0.00 0.00 71 1017.0
20260902211737 70 309 0.0 1.7 0.00 0.00 0.00 70 1017.1
20260902211231 70 306 0.0 1.7 0.00 0.00 0.00 70 1017.1
20260902210730 70 198 0.0 0.9 0.00 0.00 0.00 69 1016.9
20260902210236 70 241 0.0 0.9 0.00 0.00 0.00 68 1017.0
20260902205740 71 302 0.0 0.0 0.00 0.00 0.00 68 1017.0
20260902204734 71 302 0.0 0.9 0.00 0.00 0.00 67 1017.2
20260902204231 71 303 0.0 0.9 0.00 0.00 0.00 66 1017.1
20260902203733 72 306 0.0 0.9 0.00 0.00 0.00 65 1017.0
20260902203233 72 307 0.0 0.0 0.00 0.00 0.00 63 1017.0
20260902202731 73 307 0.0 0.0 0.00 0.00 0.00 62 1017.2
20260902202234 74 307 0.0 0.9 0.00 0.00 0.00 60 1017.0
20260902201236 76 307 0.0 0.9 0.00 0.00 0.00 56 1017.1
20260902200730 76 306 0.9 1.7 0.00 0.00 0.00 55 1017.1
20260902195731 77 308 0.9 2.6 0.00 0.00 0.00 53 1016.9
20260902195234 77 307 0.0 3.5 0.00 0.00 0.00 52 1017.1
20260902194735 78 312 0.9 3.5 0.00 0.00 0.00 51 1016.8
20260902194233 78 331 1.7 6.1 0.00 0.00 0.00 50 1017.0
20260902193733 78 322 2.6 6.1 0.00 0.00 0.00 48 1017.1
20260902192734 79 311 1.7 3.5 0.00 0.00 0.00 46 1017.1
20260902192234 79 331 1.7 6.1 0.00 0.00 0.00 45 1017.0
20260902191736 79 312 4.3 6.1 0.00 0.00 0.00 44 1016.7
20260902190733 80 327 1.7 5.2 0.00 0.00 0.00 45 1016.7
20260902190236 80 313 4.3 5.2 0.00 0.00 0.00 44 1016.8
20260902185234 80 312 1.7 3.5 0.00 0.00 0.00 47 1016.5
20260902184218 81 317 2.6 5.2 0.00 0.00 0.00 49 1016.4
20260902183215 81 326 3.5 5.2 0.00 0.00 0.00 53 1016.3
20260902182711 81 311 0.9 6.1 0.00 0.00 0.00 54 1016.3
20260902182213 82 313 1.7 6.1 0.00 0.00 0.00 54 1016.2
20260902181701 82 322 0.0 5.2 0.00 0.00 0.00 53 1016.3
20260902181155 82 320 0.9 5.2 0.00 0.00 0.00 52 1016.1
20260902180658 82 317 0.9 3.5 0.00 0.00 0.00 51 1016.3
20260902180148 82 318 0.9 3.5 0.00 0.00 0.00 50 1016.0
20260902175642 83 300 0.0 3.5 0.00 0.00 0.00 49 1015.9
20260902175148 83 322 1.7 3.5 0.00 0.00 0.00 47 1016.0
20260902174643 83 318 2.6 3.5 0.00 0.00 0.00 47 1015.9
20260902174142 83 323 0.9 6.1 0.00 0.00 0.00 48 1015.8
20260902173646 83 308 0.0 6.1 0.00 0.00 0.00 49 1015.9
20260902173150 84 312 0.9 2.6 0.00 0.00 0.00 50 1015.7
20260902172646 84 315 2.6 2.6 0.00 0.00 0.00 50 1015.7
20260902172148 84 313 0.9 2.6 0.00 0.00 0.00 51 1015.5
20260902171145 84 309 3.5 5.2 0.00 0.00 0.00 50 1015.7
20260902170645 85 314 0.9 6.1 0.00 0.00 0.00 49 1015.5
20260902170142 85 330 1.7 6.1 0.00 0.00 0.00 48 1015.6
20260902165643 85 306 1.7 6.1 0.00 0.00 0.00 48 1015.6
20260902164645 85 320 0.9 5.2 0.00 0.00 0.00 46 1015.4
20260902164142 86 344 0.0 7.0 0.00 0.00 0.00 45 1015.4
20260902163645 86 314 2.6 7.0 0.00 0.00 0.00 44 1015.5
20260902163146 86 257 1.7 5.2 0.00 0.00 0.00 43 1015.8
20260902162643 87 26 0.0 6.1 0.00 0.00 0.00 43 1015.5
20260902162144 87 310 2.6 6.1 0.00 0.00 0.00 41 1015.5
20260902161645 87 317 0.9 6.1 0.00 0.00 0.00 42 1015.6
20260902161146 87 320 1.7 6.1 0.00 0.00 0.00 41 1015.5
20260902160651 87 3 0.9 5.2 0.00 0.00 0.00 41 1015.6
20260902160145 88 251 0.0 8.7 0.00 0.00 0.00 42 1015.7
20260902154638 88 314 3.5 9.6 0.00 0.00 0.00 41 1015.7
20260902154138 88 316 3.5 9.6 0.00 0.00 0.00 41 1015.6
20260902153631 88 330 0.0 6.1 0.00 0.00 0.00 41 1015.5
20260902153130 88 313 1.7 6.1 0.00 0.00 0.00 40 1015.7
20260902152137 88 330 1.7 6.1 0.00 0.00 0.00 39 1015.5
20260902151631 88 315 0.9 5.2 0.00 0.00 0.00 39 1015.4
20260902151133 88 319 0.0 6.1 0.00 0.00 0.00 39 1015.6
20260902150633 89 326 2.6 6.1 0.00 0.00 0.00 38 1015.8
20260902150134 89 269 1.7 6.1 0.00 0.00 0.00 37 1015.6
20260902145633 91 324 3.5 3.5 0.00 0.00 0.00 36 1015.5
20260902145130 91 305 0.0 2.6 0.00 0.00 0.00 36 1015.3
20260902144631 91 6 0.0 0.9 0.00 0.00 0.00 36 1015.3
20260902144134 91 117 0.0 1.7 0.00 0.00 0.00 36 1015.4
20260902143632 91 108 0.0 1.7 0.00 0.00 0.00 37 1015.4
20260902143131 91 129 0.0 1.7 0.00 0.00 0.00 36 1015.3
20260902142633 91 330 0.0 1.7 0.00 0.00 0.00 37 1015.2
20260902142130 91 31 0.9 7.0 0.00 0.00 0.00 38 1015.4
20260902141634 91 86 0.9 7.0 0.00 0.00 0.00 38 1015.3
20260902141133 91 7 0.9 6.1 0.00 0.00 0.00 39 1015.5
20260902140630 91 22 0.0 0.9 0.00 0.00 0.00 38 1015.4
20260902140131 91 8 0.0 0.0 0.00 0.00 0.00 36 1015.8
20260902135133 91 354 0.0 1.7 0.00 0.00 0.00 36 1015.5
20260902134634 92 310 1.7 1.7 0.00 0.00 0.00 36 1015.4
20260902134136 92 327 0.0 1.7 0.00 0.00 0.00 35 1015.4
20260902133133 93 331 0.0 3.5 0.00 0.00 0.00 35 1015.5
20260902132635 94 310 0.9 1.7 0.00 0.00 0.00 34 1015.3
20260902132132 94 316 0.0 1.7 0.00 0.00 0.00 34 1015.7
20260902131632 95 300 0.9 0.9 0.00 0.00 0.00 32 1015.9
20260902131132 94 174 0.0 0.9 0.00 0.00 0.00 33 1015.7
20260902130633 94 140 0.0 1.7 0.00 0.00 0.00 33 1015.8
20260902130131 94 140 0.0 1.7 0.00 0.00 0.00 32 1016.0
20260902125633 94 145 0.0 1.7 0.00 0.00 0.00 33 1016.2
20260902125135 94 145 0.0 1.7 0.00 0.00 0.00 32 1016.2
20260902124631 94 124 0.0 1.7 0.00 0.00 0.00 34 1016.2
20260902124134 94 170 0.0 1.7 0.00 0.00 0.00 33 1016.5
20260902123633 94 182 0.0 1.7 0.00 0.00 0.00 33 1016.5
20260902123139 94 85 0.0 0.9 0.00 0.00 0.00 35 1016.5
20260902122636 93 227 0.0 0.9 0.00 0.00 0.00 35 1016.6
20260902122134 94 220 0.0 0.9 0.00 0.00 0.00 33 1016.4
20260902121637 93 213 0.0 0.9 0.00 0.00 0.00 34 1016.5
20260902121142 92 112 0.0 0.9 0.00 0.00 0.00 37 1016.6
20260902120635 92 300 0.0 3.5 0.00 0.00 0.00 36 1016.6
20260902120134 92 301 0.0 3.5 0.00 0.00 0.00 40 1016.8
20260902115636 92 185 0.0 0.9 0.00 0.00 0.00 36 1016.9
20260902115137 93 142 0.0 0.9 0.00 0.00 0.00 36 1016.8
20260902114631 93 138 0.0 0.9 0.00 0.00 0.00 36 1016.7
20260902114133 92 135 0.0 1.7 0.00 0.00 0.00 38 1016.7
20260902113630 92 132 0.0 1.7 0.00 0.00 0.00 37 1016.9
20260902113132 92 199 0.0 0.9 0.00 0.00 0.00 40 1016.9
20260902112130 91 161 0.0 5.2 0.00 0.00 0.00 38 1017.0
20260902111631 91 226 0.0 5.2 0.00 0.00 0.00 39 1017.2
20260902111133 91 218 0.0 0.9 0.00 0.00 0.00 38 1017.3
20260902110631 91 272 0.0 0.0 0.00 0.00 0.00 38 1017.5
20260902110131 91 273 0.0 0.0 0.00 0.00 0.00 40 1017.5